sensor_id;sensor_type;location;lat;lon;timestamp;P1;durP1;ratioP1;P2;durP2;ratioP2
62848;SDS011;48941;49.516;8.286;2023-12-07T00:00:53;22.00;;;10.57;;
62848;SDS011;48941;49.516;8.286;2023-12-07T00:03:23;18.13;;;10.07;;
62848;SDS011;48941;49.516;8.286;2023-12-07T00:05:50;18.73;;;10.32;;
62848;SDS011;48941;49.516;8.286;2023-12-07T00:08:18;17.08;;;9.60;;
62848;SDS011;48941;49.516;8.286;2023-12-07T00:10:46;20.15;;;10.52;;
62848;SDS011;48941;49.516;8.286;2023-12-07T00:13:14;15.88;;;10.43;;
62848;SDS011;48941;49.516;8.286;2023-12-07T00:15:42;24.05;;;10.63;;
62848;SDS011;48941;49.516;8.286;2023-12-07T00:18:10;17.70;;;10.15;;
62848;SDS011;48941;49.516;8.286;2023-12-07T00:20:39;16.23;;;9.20;;
62848;SDS011;48941;49.516;8.286;2023-12-07T00:23:07;18.00;;;10.20;;
62848;SDS011;48941;49.516;8.286;2023-12-07T00:25:35;18.15;;;9.55;;
62848;SDS011;48941;49.516;8.286;2023-12-07T00:28:03;17.88;;;9.98;;
62848;SDS011;48941;49.516;8.286;2023-12-07T00:30:31;19.20;;;10.55;;
62848;SDS011;48941;49.516;8.286;2023-12-07T00:33:00;20.98;;;10.25;;
62848;SDS011;48941;49.516;8.286;2023-12-07T00:35:27;18.00;;;10.32;;
62848;SDS011;48941;49.516;8.286;2023-12-07T00:37:57;22.33;;;10.80;;
62848;SDS011;48941;49.516;8.286;2023-12-07T00:40:25;19.20;;;10.60;;
62848;SDS011;48941;49.516;8.286;2023-12-07T00:42:53;16.55;;;10.68;;
62848;SDS011;48941;49.516;8.286;2023-12-07T00:45:21;21.77;;;11.30;;
62848;SDS011;48941;49.516;8.286;2023-12-07T00:47:49;21.42;;;10.85;;
62848;SDS011;48941;49.516;8.286;2023-12-07T00:50:18;24.20;;;11.85;;
62848;SDS011;48941;49.516;8.286;2023-12-07T00:52:46;23.55;;;12.63;;
62848;SDS011;48941;49.516;8.286;2023-12-07T00:55:16;22.30;;;12.05;;
62848;SDS011;48941;49.516;8.286;2023-12-07T00:57:44;19.52;;;10.63;;
62848;SDS011;48941;49.516;8.286;2023-12-07T01:00:12;19.05;;;10.32;;
62848;SDS011;48941;49.516;8.286;2023-12-07T01:02:40;19.98;;;10.75;;
62848;SDS011;48941;49.516;8.286;2023-12-07T01:05:08;20.98;;;10.32;;
62848;SDS011;48941;49.516;8.286;2023-12-07T01:07:36;27.50;;;12.68;;
62848;SDS011;48941;49.516;8.286;2023-12-07T01:10:04;25.85;;;12.63;;
62848;SDS011;48941;49.516;8.286;2023-12-07T01:12:34;29.13;;;13.25;;
62848;SDS011;48941;49.516;8.286;2023-12-07T01:15:03;26.73;;;12.40;;
62848;SDS011;48941;49.516;8.286;2023-12-07T01:17:32;24.58;;;12.52;;
62848;SDS011;48941;49.516;8.286;2023-12-07T01:19:59;27.75;;;13.32;;
62848;SDS011;48941;49.516;8.286;2023-12-07T01:22:31;25.67;;;13.07;;
62848;SDS011;48941;49.516;8.286;2023-12-07T01:24:59;34.20;;;13.82;;
62848;SDS011;48941;49.516;8.286;2023-12-07T01:27:27;23.52;;;11.48;;
62848;SDS011;48941;49.516;8.286;2023-12-07T01:29:56;20.52;;;11.27;;
62848;SDS011;48941;49.516;8.286;2023-12-07T01:32:24;18.63;;;11.32;;
62848;SDS011;48941;49.516;8.286;2023-12-07T01:34:52;21.35;;;11.23;;
62848;SDS011;48941;49.516;8.286;2023-12-07T01:37:20;19.73;;;11.13;;
62848;SDS011;48941;49.516;8.286;2023-12-07T01:39:48;23.00;;;12.23;;
62848;SDS011;48941;49.516;8.286;2023-12-07T01:42:16;23.30;;;12.45;;
62848;SDS011;48941;49.516;8.286;2023-12-07T01:44:44;25.08;;;13.32;;
62848;SDS011;48941;49.516;8.286;2023-12-07T01:47:14;26.27;;;13.35;;
62848;SDS011;48941;49.516;8.286;2023-12-07T01:49:42;29.83;;;12.93;;
62848;SDS011;48941;49.516;8.286;2023-12-07T01:52:11;26.58;;;12.02;;
62848;SDS011;48941;49.516;8.286;2023-12-07T01:54:40;26.48;;;13.00;;
62848;SDS011;48941;49.516;8.286;2023-12-07T01:57:08;28.67;;;12.95;;
62848;SDS011;48941;49.516;8.286;2023-12-07T01:59:36;27.65;;;13.05;;
62848;SDS011;48941;49.516;8.286;2023-12-07T02:02:04;27.58;;;12.50;;
62848;SDS011;48941;49.516;8.286;2023-12-07T02:04:33;21.55;;;12.23;;
62848;SDS011;48941;49.516;8.286;2023-12-07T02:07:02;26.40;;;11.52;;
62848;SDS011;48941;49.516;8.286;2023-12-07T02:09:31;21.27;;;11.63;;
62848;SDS011;48941;49.516;8.286;2023-12-07T02:11:59;20.73;;;10.70;;
62848;SDS011;48941;49.516;8.286;2023-12-07T02:14:28;20.80;;;10.75;;
62848;SDS011;48941;49.516;8.286;2023-12-07T02:16:56;20.55;;;10.77;;
62848;SDS011;48941;49.516;8.286;2023-12-07T02:19:43;21.38;;;10.70;;
62848;SDS011;48941;49.516;8.286;2023-12-07T02:22:17;19.70;;;10.35;;
62848;SDS011;48941;49.516;8.286;2023-12-07T02:24:55;24.08;;;11.52;;
62848;SDS011;48941;49.516;8.286;2023-12-07T02:27:37;27.58;;;10.93;;
62848;SDS011;48941;49.516;8.286;2023-12-07T02:30:07;20.30;;;11.88;;
62848;SDS011;48941;49.516;8.286;2023-12-07T02:32:36;22.13;;;11.40;;
62848;SDS011;48941;49.516;8.286;2023-12-07T02:35:05;22.05;;;11.68;;
62848;SDS011;48941;49.516;8.286;2023-12-07T02:37:35;21.63;;;11.25;;
62848;SDS011;48941;49.516;8.286;2023-12-07T02:40:08;24.23;;;12.00;;
62848;SDS011;48941;49.516;8.286;2023-12-07T02:42:39;20.85;;;11.38;;
62848;SDS011;48941;49.516;8.286;2023-12-07T02:45:09;20.52;;;10.85;;
62848;SDS011;48941;49.516;8.286;2023-12-07T02:47:38;22.42;;;12.48;;
62848;SDS011;48941;49.516;8.286;2023-12-07T02:50:06;24.00;;;13.02;;
62848;SDS011;48941;49.516;8.286;2023-12-07T02:52:35;23.83;;;12.93;;
62848;SDS011;48941;49.516;8.286;2023-12-07T02:55:04;23.38;;;12.35;;
62848;SDS011;48941;49.516;8.286;2023-12-07T02:57:32;21.35;;;12.07;;
62848;SDS011;48941;49.516;8.286;2023-12-07T03:00:02;23.23;;;12.35;;
62848;SDS011;48941;49.516;8.286;2023-12-07T03:02:33;23.53;;;12.37;;
62848;SDS011;48941;49.516;8.286;2023-12-07T03:05:01;19.65;;;11.35;;
62848;SDS011;48941;49.516;8.286;2023-12-07T03:07:29;25.80;;;12.05;;
62848;SDS011;48941;49.516;8.286;2023-12-07T03:09:57;21.50;;;11.77;;
62848;SDS011;48941;49.516;8.286;2023-12-07T03:12:25;24.08;;;11.75;;
62848;SDS011;48941;49.516;8.286;2023-12-07T03:14:53;25.05;;;11.52;;
62848;SDS011;48941;49.516;8.286;2023-12-07T03:17:23;21.65;;;11.70;;
62848;SDS011;48941;49.516;8.286;2023-12-07T03:19:51;20.70;;;11.10;;
62848;SDS011;48941;49.516;8.286;2023-12-07T03:22:19;21.90;;;10.85;;
62848;SDS011;48941;49.516;8.286;2023-12-07T03:24:48;24.92;;;11.73;;
62848;SDS011;48941;49.516;8.286;2023-12-07T03:27:17;22.15;;;12.07;;
62848;SDS011;48941;49.516;8.286;2023-12-07T03:29:46;21.52;;;10.82;;
62848;SDS011;48941;49.516;8.286;2023-12-07T03:32:14;22.10;;;11.73;;
62848;SDS011;48941;49.516;8.286;2023-12-07T03:34:43;25.08;;;11.50;;
62848;SDS011;48941;49.516;8.286;2023-12-07T03:37:10;20.90;;;11.75;;
62848;SDS011;48941;49.516;8.286;2023-12-07T03:39:39;21.40;;;11.93;;
62848;SDS011;48941;49.516;8.286;2023-12-07T03:42:09;18.73;;;11.00;;
62848;SDS011;48941;49.516;8.286;2023-12-07T03:44:57;22.13;;;11.38;;
62848;SDS011;48941;49.516;8.286;2023-12-07T03:47:25;18.60;;;10.57;;
62848;SDS011;48941;49.516;8.286;2023-12-07T03:49:54;18.73;;;10.82;;
62848;SDS011;48941;49.516;8.286;2023-12-07T03:52:22;23.92;;;11.10;;
62848;SDS011;48941;49.516;8.286;2023-12-07T03:54:50;21.13;;;10.88;;
62848;SDS011;48941;49.516;8.286;2023-12-07T03:57:18;21.02;;;11.63;;
62848;SDS011;48941;49.516;8.286;2023-12-07T03:59:46;19.48;;;10.52;;
62848;SDS011;48941;49.516;8.286;2023-12-07T04:02:15;20.05;;;11.25;;
62848;SDS011;48941;49.516;8.286;2023-12-07T04:04:43;18.05;;;10.38;;
62848;SDS011;48941;49.516;8.286;2023-12-07T04:07:12;19.92;;;10.40;;
62848;SDS011;48941;49.516;8.286;2023-12-07T04:09:40;22.20;;;11.80;;
62848;SDS011;48941;49.516;8.286;2023-12-07T04:12:08;24.98;;;13.20;;
62848;SDS011;48941;49.516;8.286;2023-12-07T04:14:35;29.42;;;14.52;;
62848;SDS011;48941;49.516;8.286;2023-12-07T04:17:03;31.27;;;18.85;;
62848;SDS011;48941;49.516;8.286;2023-12-07T04:19:31;30.05;;;18.58;;
62848;SDS011;48941;49.516;8.286;2023-12-07T04:21:59;29.45;;;17.83;;
62848;SDS011;48941;49.516;8.286;2023-12-07T04:24:28;22.77;;;13.88;;
62848;SDS011;48941;49.516;8.286;2023-12-07T04:26:57;29.17;;;14.85;;
62848;SDS011;48941;49.516;8.286;2023-12-07T04:29:25;23.45;;;12.20;;
62848;SDS011;48941;49.516;8.286;2023-12-07T04:31:53;24.88;;;11.25;;
62848;SDS011;48941;49.516;8.286;2023-12-07T04:34:21;24.10;;;11.57;;
62848;SDS011;48941;49.516;8.286;2023-12-07T04:36:49;25.52;;;12.68;;
62848;SDS011;48941;49.516;8.286;2023-12-07T04:39:16;21.30;;;11.25;;
62848;SDS011;48941;49.516;8.286;2023-12-07T04:41:46;17.67;;;10.63;;
62848;SDS011;48941;49.516;8.286;2023-12-07T04:44:13;22.77;;;12.02;;
62848;SDS011;48941;49.516;8.286;2023-12-07T04:46:41;20.55;;;11.77;;
62848;SDS011;48941;49.516;8.286;2023-12-07T04:49:10;21.33;;;11.95;;
62848;SDS011;48941;49.516;8.286;2023-12-07T04:51:37;19.10;;;11.25;;
62848;SDS011;48941;49.516;8.286;2023-12-07T04:54:07;22.80;;;11.63;;
62848;SDS011;48941;49.516;8.286;2023-12-07T04:56:46;27.77;;;13.55;;
62848;SDS011;48941;49.516;8.286;2023-12-07T04:59:14;27.83;;;14.32;;
62848;SDS011;48941;49.516;8.286;2023-12-07T05:01:42;25.42;;;13.77;;
62848;SDS011;48941;49.516;8.286;2023-12-07T05:04:10;23.63;;;12.80;;
62848;SDS011;48941;49.516;8.286;2023-12-07T05:06:38;25.10;;;12.88;;
62848;SDS011;48941;49.516;8.286;2023-12-07T05:09:05;21.17;;;11.48;;
62848;SDS011;48941;49.516;8.286;2023-12-07T05:11:35;23.08;;;12.15;;
62848;SDS011;48941;49.516;8.286;2023-12-07T05:14:05;23.52;;;10.98;;
62848;SDS011;48941;49.516;8.286;2023-12-07T05:16:33;20.70;;;10.95;;
62848;SDS011;48941;49.516;8.286;2023-12-07T05:19:01;21.42;;;10.32;;
62848;SDS011;48941;49.516;8.286;2023-12-07T05:21:29;22.98;;;10.40;;
62848;SDS011;48941;49.516;8.286;2023-12-07T05:23:57;19.80;;;10.40;;
62848;SDS011;48941;49.516;8.286;2023-12-07T05:26:25;18.15;;;10.07;;
62848;SDS011;48941;49.516;8.286;2023-12-07T05:28:52;22.38;;;11.43;;
62848;SDS011;48941;49.516;8.286;2023-12-07T05:31:22;19.77;;;10.48;;
62848;SDS011;48941;49.516;8.286;2023-12-07T05:33:50;22.30;;;10.70;;
62848;SDS011;48941;49.516;8.286;2023-12-07T05:36:18;17.58;;;9.98;;
62848;SDS011;48941;49.516;8.286;2023-12-07T05:38:46;22.58;;;10.60;;
62848;SDS011;48941;49.516;8.286;2023-12-07T05:41:13;18.83;;;9.85;;
62848;SDS011;48941;49.516;8.286;2023-12-07T05:43:41;22.58;;;10.90;;
62848;SDS011;48941;49.516;8.286;2023-12-07T05:46:09;17.58;;;9.90;;
62848;SDS011;48941;49.516;8.286;2023-12-07T05:48:38;20.17;;;10.25;;
62848;SDS011;48941;49.516;8.286;2023-12-07T05:51:11;19.27;;;10.50;;
62848;SDS011;48941;49.516;8.286;2023-12-07T05:53:39;21.65;;;9.98;;
62848;SDS011;48941;49.516;8.286;2023-12-07T05:56:07;18.23;;;10.63;;
62848;SDS011;48941;49.516;8.286;2023-12-07T05:58:36;25.17;;;11.52;;
62848;SDS011;48941;49.516;8.286;2023-12-07T06:01:04;24.90;;;10.68;;
62848;SDS011;48941;49.516;8.286;2023-12-07T06:03:34;22.27;;;11.05;;
62848;SDS011;48941;49.516;8.286;2023-12-07T06:06:05;26.75;;;11.48;;
62848;SDS011;48941;49.516;8.286;2023-12-07T06:08:33;22.42;;;11.00;;
62848;SDS011;48941;49.516;8.286;2023-12-07T06:11:00;22.25;;;10.50;;
62848;SDS011;48941;49.516;8.286;2023-12-07T06:13:28;21.00;;;11.13;;
62848;SDS011;48941;49.516;8.286;2023-12-07T06:15:56;27.95;;;12.40;;
62848;SDS011;48941;49.516;8.286;2023-12-07T06:18:24;36.38;;;14.20;;
62848;SDS011;48941;49.516;8.286;2023-12-07T06:20:52;31.45;;;13.82;;
62848;SDS011;48941;49.516;8.286;2023-12-07T06:23:23;29.45;;;14.00;;
62848;SDS011;48941;49.516;8.286;2023-12-07T06:25:51;26.70;;;12.82;;
62848;SDS011;48941;49.516;8.286;2023-12-07T06:28:19;29.23;;;12.73;;
62848;SDS011;48941;49.516;8.286;2023-12-07T06:30:47;27.23;;;12.88;;
62848;SDS011;48941;49.516;8.286;2023-12-07T06:33:15;28.33;;;12.48;;
62848;SDS011;48941;49.516;8.286;2023-12-07T06:35:43;30.45;;;13.35;;
62848;SDS011;48941;49.516;8.286;2023-12-07T06:38:12;26.13;;;13.05;;
62848;SDS011;48941;49.516;8.286;2023-12-07T06:40:42;28.92;;;13.65;;
62848;SDS011;48941;49.516;8.286;2023-12-07T06:43:10;32.17;;;15.23;;
62848;SDS011;48941;49.516;8.286;2023-12-07T06:45:38;24.15;;;13.43;;
62848;SDS011;48941;49.516;8.286;2023-12-07T06:48:06;22.60;;;11.25;;
62848;SDS011;48941;49.516;8.286;2023-12-07T06:50:34;24.02;;;10.48;;
62848;SDS011;48941;49.516;8.286;2023-12-07T06:53:02;19.05;;;10.02;;
62848;SDS011;48941;49.516;8.286;2023-12-07T06:55:31;25.48;;;10.55;;
62848;SDS011;48941;49.516;8.286;2023-12-07T06:58:04;21.40;;;9.82;;
62848;SDS011;48941;49.516;8.286;2023-12-07T07:00:32;26.45;;;13.27;;
62848;SDS011;48941;49.516;8.286;2023-12-07T07:03:00;31.77;;;14.68;;
62848;SDS011;48941;49.516;8.286;2023-12-07T07:05:28;28.00;;;14.57;;
62848;SDS011;48941;49.516;8.286;2023-12-07T07:07:56;23.20;;;13.07;;
62848;SDS011;48941;49.516;8.286;2023-12-07T07:10:24;24.05;;;12.38;;
62848;SDS011;48941;49.516;8.286;2023-12-07T07:12:52;25.52;;;14.05;;
62848;SDS011;48941;49.516;8.286;2023-12-07T07:15:21;24.33;;;13.27;;
62848;SDS011;48941;49.516;8.286;2023-12-07T07:17:51;22.60;;;13.35;;
62848;SDS011;48941;49.516;8.286;2023-12-07T07:20:19;21.85;;;13.02;;
62848;SDS011;48941;49.516;8.286;2023-12-07T07:22:48;25.58;;;13.43;;
62848;SDS011;48941;49.516;8.286;2023-12-07T07:25:16;25.92;;;12.60;;
62848;SDS011;48941;49.516;8.286;2023-12-07T07:27:45;23.02;;;12.85;;
62848;SDS011;48941;49.516;8.286;2023-12-07T07:30:13;28.67;;;13.20;;
62848;SDS011;48941;49.516;8.286;2023-12-07T07:32:43;20.80;;;11.82;;
62848;SDS011;48941;49.516;8.286;2023-12-07T07:35:11;25.20;;;12.63;;
62848;SDS011;48941;49.516;8.286;2023-12-07T07:37:39;25.30;;;11.73;;
62848;SDS011;48941;49.516;8.286;2023-12-07T07:40:08;23.20;;;13.35;;
62848;SDS011;48941;49.516;8.286;2023-12-07T07:42:38;21.85;;;12.95;;
62848;SDS011;48941;49.516;8.286;2023-12-07T07:45:07;29.15;;;14.02;;
62848;SDS011;48941;49.516;8.286;2023-12-07T07:47:35;31.95;;;15.60;;
62848;SDS011;48941;49.516;8.286;2023-12-07T07:50:05;33.75;;;16.08;;
62848;SDS011;48941;49.516;8.286;2023-12-07T07:52:34;31.00;;;15.30;;
62848;SDS011;48941;49.516;8.286;2023-12-07T07:55:03;27.95;;;12.45;;
62848;SDS011;48941;49.516;8.286;2023-12-07T07:57:32;23.15;;;12.38;;
62848;SDS011;48941;49.516;8.286;2023-12-07T07:59:59;24.02;;;13.73;;
62848;SDS011;48941;49.516;8.286;2023-12-07T08:02:27;23.05;;;12.88;;
62848;SDS011;48941;49.516;8.286;2023-12-07T08:04:55;27.42;;;13.15;;
62848;SDS011;48941;49.516;8.286;2023-12-07T08:07:25;22.58;;;12.95;;
62848;SDS011;48941;49.516;8.286;2023-12-07T08:09:53;28.42;;;12.90;;
62848;SDS011;48941;49.516;8.286;2023-12-07T08:12:21;22.48;;;11.98;;
62848;SDS011;48941;49.516;8.286;2023-12-07T08:14:50;22.65;;;12.70;;
62848;SDS011;48941;49.516;8.286;2023-12-07T08:17:18;24.58;;;12.98;;
62848;SDS011;48941;49.516;8.286;2023-12-07T08:19:46;24.65;;;12.90;;
62848;SDS011;48941;49.516;8.286;2023-12-07T08:22:16;24.67;;;12.75;;
62848;SDS011;48941;49.516;8.286;2023-12-07T08:24:45;19.40;;;10.82;;
62848;SDS011;48941;49.516;8.286;2023-12-07T08:27:26;24.35;;;12.13;;
62848;SDS011;48941;49.516;8.286;2023-12-07T08:29:54;20.95;;;11.85;;
62848;SDS011;48941;49.516;8.286;2023-12-07T08:32:22;24.45;;;11.38;;
62848;SDS011;48941;49.516;8.286;2023-12-07T08:34:52;24.17;;;13.40;;
62848;SDS011;48941;49.516;8.286;2023-12-07T08:37:20;23.10;;;12.48;;
62848;SDS011;48941;49.516;8.286;2023-12-07T08:39:50;23.90;;;11.45;;
62848;SDS011;48941;49.516;8.286;2023-12-07T08:42:18;23.52;;;12.82;;
62848;SDS011;48941;49.516;8.286;2023-12-07T08:44:46;22.58;;;12.50;;
62848;SDS011;48941;49.516;8.286;2023-12-07T08:47:13;23.25;;;13.07;;
62848;SDS011;48941;49.516;8.286;2023-12-07T08:49:41;24.92;;;13.70;;
62848;SDS011;48941;49.516;8.286;2023-12-07T08:52:09;28.02;;;12.55;;
62848;SDS011;48941;49.516;8.286;2023-12-07T08:54:58;30.83;;;13.00;;
62848;SDS011;48941;49.516;8.286;2023-12-07T08:57:26;24.77;;;13.05;;
62848;SDS011;48941;49.516;8.286;2023-12-07T08:59:54;28.83;;;13.50;;
62848;SDS011;48941;49.516;8.286;2023-12-07T09:02:24;24.45;;;13.35;;
62848;SDS011;48941;49.516;8.286;2023-12-07T09:05:07;30.42;;;15.20;;
62848;SDS011;48941;49.516;8.286;2023-12-07T09:07:36;28.83;;;14.35;;
62848;SDS011;48941;49.516;8.286;2023-12-07T09:10:06;23.90;;;13.82;;
62848;SDS011;48941;49.516;8.286;2023-12-07T09:12:36;35.72;;;15.00;;
62848;SDS011;48941;49.516;8.286;2023-12-07T09:15:06;32.83;;;14.38;;
62848;SDS011;48941;49.516;8.286;2023-12-07T09:17:37;30.85;;;15.82;;
62848;SDS011;48941;49.516;8.286;2023-12-07T09:20:06;34.60;;;15.98;;
62848;SDS011;48941;49.516;8.286;2023-12-07T09:22:39;35.03;;;16.42;;
62848;SDS011;48941;49.516;8.286;2023-12-07T09:25:09;35.15;;;17.45;;
62848;SDS011;48941;49.516;8.286;2023-12-07T09:27:38;30.67;;;15.23;;
62848;SDS011;48941;49.516;8.286;2023-12-07T09:30:07;29.30;;;15.20;;
62848;SDS011;48941;49.516;8.286;2023-12-07T09:32:38;25.02;;;14.63;;
62848;SDS011;48941;49.516;8.286;2023-12-07T09:35:07;28.20;;;15.55;;
62848;SDS011;48941;49.516;8.286;2023-12-07T09:37:41;32.85;;;15.35;;
62848;SDS011;48941;49.516;8.286;2023-12-07T09:40:15;36.67;;;16.33;;
62848;SDS011;48941;49.516;8.286;2023-12-07T09:42:45;29.10;;;14.02;;
62848;SDS011;48941;49.516;8.286;2023-12-07T09:45:14;27.30;;;14.15;;
62848;SDS011;48941;49.516;8.286;2023-12-07T09:47:46;27.33;;;14.65;;
62848;SDS011;48941;49.516;8.286;2023-12-07T09:50:15;29.48;;;15.68;;
62848;SDS011;48941;49.516;8.286;2023-12-07T09:52:47;26.80;;;15.52;;
62848;SDS011;48941;49.516;8.286;2023-12-07T09:55:30;36.08;;;16.67;;
62848;SDS011;48941;49.516;8.286;2023-12-07T09:58:00;36.83;;;16.77;;
62848;SDS011;48941;49.516;8.286;2023-12-07T10:00:32;35.20;;;16.63;;
62848;SDS011;48941;49.516;8.286;2023-12-07T10:03:00;41.80;;;17.60;;
62848;SDS011;48941;49.516;8.286;2023-12-07T10:05:28;41.08;;;16.85;;
62848;SDS011;48941;49.516;8.286;2023-12-07T10:07:56;45.05;;;18.38;;
62848;SDS011;48941;49.516;8.286;2023-12-07T10:10:24;44.40;;;18.27;;
62848;SDS011;48941;49.516;8.286;2023-12-07T10:12:55;44.90;;;18.33;;
62848;SDS011;48941;49.516;8.286;2023-12-07T10:15:24;44.28;;;18.15;;
62848;SDS011;48941;49.516;8.286;2023-12-07T10:17:55;45.10;;;18.63;;
62848;SDS011;48941;49.516;8.286;2023-12-07T10:20:25;45.63;;;17.77;;
62848;SDS011;48941;49.516;8.286;2023-12-07T10:23:02;41.80;;;17.52;;
62848;SDS011;48941;49.516;8.286;2023-12-07T10:25:33;43.83;;;17.55;;
62848;SDS011;48941;49.516;8.286;2023-12-07T10:28:05;52.47;;;19.15;;
62848;SDS011;48941;49.516;8.286;2023-12-07T10:30:35;35.97;;;15.98;;
62848;SDS011;48941;49.516;8.286;2023-12-07T10:33:05;41.67;;;17.63;;
62848;SDS011;48941;49.516;8.286;2023-12-07T10:35:37;41.22;;;18.38;;
62848;SDS011;48941;49.516;8.286;2023-12-07T10:38:09;39.35;;;15.35;;
62848;SDS011;48941;49.516;8.286;2023-12-07T10:40:38;44.00;;;18.08;;
62848;SDS011;48941;49.516;8.286;2023-12-07T10:43:08;39.08;;;16.08;;
62848;SDS011;48941;49.516;8.286;2023-12-07T10:45:39;41.97;;;15.25;;
62848;SDS011;48941;49.516;8.286;2023-12-07T10:48:10;43.10;;;16.35;;
62848;SDS011;48941;49.516;8.286;2023-12-07T10:50:40;40.95;;;15.52;;
62848;SDS011;48941;49.516;8.286;2023-12-07T10:53:12;49.28;;;17.73;;
62848;SDS011;48941;49.516;8.286;2023-12-07T10:55:47;36.85;;;15.80;;
62848;SDS011;48941;49.516;8.286;2023-12-07T10:58:21;34.47;;;14.73;;
62848;SDS011;48941;49.516;8.286;2023-12-07T11:00:52;35.80;;;14.23;;
62848;SDS011;48941;49.516;8.286;2023-12-07T11:03:21;38.67;;;14.15;;
62848;SDS011;48941;49.516;8.286;2023-12-07T11:05:49;27.52;;;12.95;;
62848;SDS011;48941;49.516;8.286;2023-12-07T11:08:21;30.23;;;14.52;;
62848;SDS011;48941;49.516;8.286;2023-12-07T11:10:58;31.63;;;15.40;;
62848;SDS011;48941;49.516;8.286;2023-12-07T11:13:34;33.92;;;13.93;;
62848;SDS011;48941;49.516;8.286;2023-12-07T11:16:03;34.45;;;12.20;;
62848;SDS011;48941;49.516;8.286;2023-12-07T11:18:32;36.92;;;14.90;;
62848;SDS011;48941;49.516;8.286;2023-12-07T11:21:00;33.97;;;15.07;;
62848;SDS011;48941;49.516;8.286;2023-12-07T11:23:29;38.03;;;15.18;;
62848;SDS011;48941;49.516;8.286;2023-12-07T11:25:58;48.47;;;13.82;;
62848;SDS011;48941;49.516;8.286;2023-12-07T11:28:38;51.17;;;15.45;;
62848;SDS011;48941;49.516;8.286;2023-12-07T11:31:07;58.70;;;15.32;;
62848;SDS011;48941;49.516;8.286;2023-12-07T11:33:37;45.88;;;15.52;;
62848;SDS011;48941;49.516;8.286;2023-12-07T11:36:06;46.88;;;14.73;;
62848;SDS011;48941;49.516;8.286;2023-12-07T11:38:36;41.60;;;15.02;;
62848;SDS011;48941;49.516;8.286;2023-12-07T11:41:04;59.15;;;14.48;;
62848;SDS011;48941;49.516;8.286;2023-12-07T11:43:37;42.25;;;14.90;;
62848;SDS011;48941;49.516;8.286;2023-12-07T11:46:11;52.20;;;17.23;;
62848;SDS011;48941;49.516;8.286;2023-12-07T11:48:45;43.25;;;14.98;;
62848;SDS011;48941;49.516;8.286;2023-12-07T11:51:15;42.05;;;16.08;;
62848;SDS011;48941;49.516;8.286;2023-12-07T11:53:43;43.58;;;14.93;;
62848;SDS011;48941;49.516;8.286;2023-12-07T11:56:11;46.08;;;16.92;;
62848;SDS011;48941;49.516;8.286;2023-12-07T11:58:41;61.22;;;17.17;;
62848;SDS011;48941;49.516;8.286;2023-12-07T12:01:08;54.00;;;16.95;;
62848;SDS011;48941;49.516;8.286;2023-12-07T12:03:38;44.80;;;15.70;;
62848;SDS011;48941;49.516;8.286;2023-12-07T12:06:07;51.72;;;14.60;;
62848;SDS011;48941;49.516;8.286;2023-12-07T12:08:39;47.65;;;15.43;;
62848;SDS011;48941;49.516;8.286;2023-12-07T12:11:09;48.13;;;16.73;;
62848;SDS011;48941;49.516;8.286;2023-12-07T12:13:36;50.47;;;16.15;;
62848;SDS011;48941;49.516;8.286;2023-12-07T12:16:07;50.33;;;16.83;;
62848;SDS011;48941;49.516;8.286;2023-12-07T12:18:35;46.78;;;17.27;;
62848;SDS011;48941;49.516;8.286;2023-12-07T12:21:06;54.00;;;15.75;;
62848;SDS011;48941;49.516;8.286;2023-12-07T12:23:35;47.80;;;15.65;;
62848;SDS011;48941;49.516;8.286;2023-12-07T12:26:04;39.42;;;15.25;;
62848;SDS011;48941;49.516;8.286;2023-12-07T12:28:34;33.90;;;14.02;;
62848;SDS011;48941;49.516;8.286;2023-12-07T12:31:10;45.05;;;17.70;;
62848;SDS011;48941;49.516;8.286;2023-12-07T12:33:39;43.80;;;18.20;;
62848;SDS011;48941;49.516;8.286;2023-12-07T12:36:07;42.75;;;16.27;;
62848;SDS011;48941;49.516;8.286;2023-12-07T12:38:37;41.85;;;15.90;;
62848;SDS011;48941;49.516;8.286;2023-12-07T12:41:09;43.35;;;16.02;;
62848;SDS011;48941;49.516;8.286;2023-12-07T12:43:39;42.35;;;16.00;;
62848;SDS011;48941;49.516;8.286;2023-12-07T12:46:08;41.70;;;16.15;;
62848;SDS011;48941;49.516;8.286;2023-12-07T12:48:40;51.10;;;14.88;;
62848;SDS011;48941;49.516;8.286;2023-12-07T12:51:22;48.35;;;17.63;;
62848;SDS011;48941;49.516;8.286;2023-12-07T12:53:51;58.13;;;18.83;;
62848;SDS011;48941;49.516;8.286;2023-12-07T12:56:20;50.10;;;16.65;;
62848;SDS011;48941;49.516;8.286;2023-12-07T12:58:49;47.90;;;14.88;;
62848;SDS011;48941;49.516;8.286;2023-12-07T13:01:18;49.13;;;14.35;;
62848;SDS011;48941;49.516;8.286;2023-12-07T13:03:48;44.30;;;14.73;;
62848;SDS011;48941;49.516;8.286;2023-12-07T13:06:16;38.72;;;15.02;;
62848;SDS011;48941;49.516;8.286;2023-12-07T13:08:45;52.63;;;15.77;;
62848;SDS011;48941;49.516;8.286;2023-12-07T13:11:15;51.53;;;15.40;;
62848;SDS011;48941;49.516;8.286;2023-12-07T13:13:44;43.25;;;14.40;;
62848;SDS011;48941;49.516;8.286;2023-12-07T13:16:14;45.35;;;13.77;;
62848;SDS011;48941;49.516;8.286;2023-12-07T13:18:43;43.00;;;14.73;;
62848;SDS011;48941;49.516;8.286;2023-12-07T13:21:12;48.85;;;16.35;;
62848;SDS011;48941;49.516;8.286;2023-12-07T13:23:42;49.03;;;15.73;;
62848;SDS011;48941;49.516;8.286;2023-12-07T13:26:13;46.83;;;14.88;;
62848;SDS011;48941;49.516;8.286;2023-12-07T13:28:41;45.88;;;16.92;;
62848;SDS011;48941;49.516;8.286;2023-12-07T13:31:09;49.13;;;16.17;;
62848;SDS011;48941;49.516;8.286;2023-12-07T13:33:37;62.08;;;16.45;;
62848;SDS011;48941;49.516;8.286;2023-12-07T13:36:20;56.72;;;17.23;;
62848;SDS011;48941;49.516;8.286;2023-12-07T13:38:50;59.75;;;16.98;;
62848;SDS011;48941;49.516;8.286;2023-12-07T13:41:18;60.78;;;16.58;;
62848;SDS011;48941;49.516;8.286;2023-12-07T13:43:49;49.78;;;16.85;;
62848;SDS011;48941;49.516;8.286;2023-12-07T13:46:17;58.00;;;18.23;;
62848;SDS011;48941;49.516;8.286;2023-12-07T13:48:45;54.15;;;17.35;;
62848;SDS011;48941;49.516;8.286;2023-12-07T13:51:13;64.18;;;18.27;;
62848;SDS011;48941;49.516;8.286;2023-12-07T13:53:42;65.75;;;19.70;;
62848;SDS011;48941;49.516;8.286;2023-12-07T13:56:10;64.72;;;18.92;;
62848;SDS011;48941;49.516;8.286;2023-12-07T13:58:38;61.03;;;19.58;;
62848;SDS011;48941;49.516;8.286;2023-12-07T14:01:06;67.00;;;19.10;;
62848;SDS011;48941;49.516;8.286;2023-12-07T14:03:35;61.83;;;19.80;;
62848;SDS011;48941;49.516;8.286;2023-12-07T14:06:03;67.20;;;20.60;;
62848;SDS011;48941;49.516;8.286;2023-12-07T14:08:48;63.78;;;20.67;;
62848;SDS011;48941;49.516;8.286;2023-12-07T14:11:16;64.68;;;20.08;;
62848;SDS011;48941;49.516;8.286;2023-12-07T14:13:45;70.95;;;21.73;;
62848;SDS011;48941;49.516;8.286;2023-12-07T14:16:14;57.92;;;21.45;;
62848;SDS011;48941;49.516;8.286;2023-12-07T14:18:57;76.40;;;21.67;;
62848;SDS011;48941;49.516;8.286;2023-12-07T14:21:40;66.82;;;21.60;;
62848;SDS011;48941;49.516;8.286;2023-12-07T14:24:22;75.70;;;21.83;;
62848;SDS011;48941;49.516;8.286;2023-12-07T14:26:51;74.57;;;21.58;;
62848;SDS011;48941;49.516;8.286;2023-12-07T14:29:19;74.95;;;21.48;;
62848;SDS011;48941;49.516;8.286;2023-12-07T14:31:53;66.80;;;20.48;;
62848;SDS011;48941;49.516;8.286;2023-12-07T14:34:21;70.82;;;22.10;;